KMQJ

Indianapolis Regional Airport

Indianapolis, Indiana, USA
METAR KMQJ 191856Z AUTO 31005KT 10SM CLR 31/23 A3000 RMK AO1
Observed Flight Rules
Sep-19 @ 18:56 UTC (4 minutes ago) Visual Flight Rules
Wind Visibility Clouds
310° at 5 knots 10 miles
  • Clear skies
Temperatures Readings
Current 31°C / 88°F
Dewpoint 23°C / 73°F
Humidity 62%
Altimeter 30" Hg
Pressure 1016 hPa
Elevation 263
METAR KMQJ 191856Z AUTO 31005KT 10SM CLR 31/23 A3000 RMK AO1
Observed Flight Rules
Sep-19 @ 18:56 UTC
(4 minutes ago)
VFR
Wind Visibility
310° at 5 knots 10 miles
Clouds
  • Clear skies
Temperature Dewpoint
31°C / 88°F 23°C / 73°F
Humidity Altimeter Pressure
62% 30" Hg 1016 hPa